sensor_id;sensor_type;location;lat;lon;timestamp;P1;durP1;ratioP1;P2;durP2;ratioP2
28547;SDS011;68292;49.600;8.746;2023-08-06T00:00:25;2.42;;;2.22;;
28547;SDS011;68292;49.600;8.746;2023-08-06T00:02:54;2.85;;;2.35;;
28547;SDS011;68292;49.600;8.746;2023-08-06T00:05:24;4.95;;;2.40;;
28547;SDS011;68292;49.600;8.746;2023-08-06T00:07:52;3.95;;;2.67;;
28547;SDS011;68292;49.600;8.746;2023-08-06T00:10:20;4.43;;;2.38;;
28547;SDS011;68292;49.600;8.746;2023-08-06T00:12:48;2.90;;;2.30;;
28547;SDS011;68292;49.600;8.746;2023-08-06T00:15:16;2.90;;;2.70;;
28547;SDS011;68292;49.600;8.746;2023-08-06T00:17:45;2.50;;;2.30;;
28547;SDS011;68292;49.600;8.746;2023-08-06T00:20:13;2.05;;;1.95;;
28547;SDS011;68292;49.600;8.746;2023-08-06T00:22:42;3.70;;;2.53;;
28547;SDS011;68292;49.600;8.746;2023-08-06T00:25:11;4.38;;;2.47;;
28547;SDS011;68292;49.600;8.746;2023-08-06T00:27:38;2.78;;;2.58;;
28547;SDS011;68292;49.600;8.746;2023-08-06T00:30:07;4.25;;;2.60;;
28547;SDS011;68292;49.600;8.746;2023-08-06T00:32:35;2.45;;;2.25;;
28547;SDS011;68292;49.600;8.746;2023-08-06T00:35:03;3.60;;;2.60;;
28547;SDS011;68292;49.600;8.746;2023-08-06T00:37:33;3.05;;;2.72;;
28547;SDS011;68292;49.600;8.746;2023-08-06T00:40:03;4.75;;;3.10;;
28547;SDS011;68292;49.600;8.746;2023-08-06T00:42:33;3.13;;;2.63;;
28547;SDS011;68292;49.600;8.746;2023-08-06T00:45:02;2.50;;;2.30;;
28547;SDS011;68292;49.600;8.746;2023-08-06T00:47:31;2.38;;;2.00;;
28547;SDS011;68292;49.600;8.746;2023-08-06T00:49:59;4.32;;;2.10;;
28547;SDS011;68292;49.600;8.746;2023-08-06T00:52:27;2.42;;;2.22;;
28547;SDS011;68292;49.600;8.746;2023-08-06T00:54:55;3.00;;;2.33;;
28547;SDS011;68292;49.600;8.746;2023-08-06T00:57:25;3.67;;;2.28;;
28547;SDS011;68292;49.600;8.746;2023-08-06T00:59:53;2.00;;;1.90;;
28547;SDS011;68292;49.600;8.746;2023-08-06T01:02:22;4.05;;;2.20;;
28547;SDS011;68292;49.600;8.746;2023-08-06T01:04:50;3.80;;;2.40;;
28547;SDS011;68292;49.600;8.746;2023-08-06T01:07:21;1.92;;;1.80;;
28547;SDS011;68292;49.600;8.746;2023-08-06T01:10:06;2.38;;;2.17;;
28547;SDS011;68292;49.600;8.746;2023-08-06T01:12:51;6.20;;;2.10;;
28547;SDS011;68292;49.600;8.746;2023-08-06T01:15:37;4.85;;;2.40;;
28547;SDS011;68292;49.600;8.746;2023-08-06T01:18:16;5.88;;;2.22;;
28547;SDS011;68292;49.600;8.746;2023-08-06T01:20:46;2.92;;;2.22;;
28547;SDS011;68292;49.600;8.746;2023-08-06T01:23:16;2.33;;;2.05;;
28547;SDS011;68292;49.600;8.746;2023-08-06T01:25:47;2.35;;;2.00;;
28547;SDS011;68292;49.600;8.746;2023-08-06T01:28:25;2.33;;;2.13;;
28547;SDS011;68292;49.600;8.746;2023-08-06T01:31:10;2.63;;;2.42;;
28547;SDS011;68292;49.600;8.746;2023-08-06T01:33:43;3.05;;;2.30;;
28547;SDS011;68292;49.600;8.746;2023-08-06T01:36:16;2.75;;;1.85;;
28547;SDS011;68292;49.600;8.746;2023-08-06T01:38:46;2.78;;;2.50;;
28547;SDS011;68292;49.600;8.746;2023-08-06T01:41:14;2.67;;;2.42;;
28547;SDS011;68292;49.600;8.746;2023-08-06T01:43:42;2.33;;;2.13;;
28547;SDS011;68292;49.600;8.746;2023-08-06T01:46:10;2.65;;;2.33;;
28547;SDS011;68292;49.600;8.746;2023-08-06T01:48:39;2.13;;;1.92;;
28547;SDS011;68292;49.600;8.746;2023-08-06T01:51:07;5.60;;;2.22;;
28547;SDS011;68292;49.600;8.746;2023-08-06T01:53:36;2.30;;;2.10;;
28547;SDS011;68292;49.600;8.746;2023-08-06T01:56:04;2.25;;;2.05;;
28547;SDS011;68292;49.600;8.746;2023-08-06T01:58:32;2.38;;;2.17;;
28547;SDS011;68292;49.600;8.746;2023-08-06T02:01:00;2.20;;;2.00;;
28547;SDS011;68292;49.600;8.746;2023-08-06T02:03:29;3.30;;;2.20;;
28547;SDS011;68292;49.600;8.746;2023-08-06T02:05:57;2.25;;;2.10;;
28547;SDS011;68292;49.600;8.746;2023-08-06T02:08:26;2.85;;;2.35;;
28547;SDS011;68292;49.600;8.746;2023-08-06T02:10:56;2.13;;;2.03;;
28547;SDS011;68292;49.600;8.746;2023-08-06T02:13:25;2.25;;;2.05;;
28547;SDS011;68292;49.600;8.746;2023-08-06T02:15:53;2.22;;;2.03;;
28547;SDS011;68292;49.600;8.746;2023-08-06T02:18:23;2.78;;;2.33;;
28547;SDS011;68292;49.600;8.746;2023-08-06T02:20:55;3.42;;;2.30;;
28547;SDS011;68292;49.600;8.746;2023-08-06T02:23:24;3.17;;;1.73;;
28547;SDS011;68292;49.600;8.746;2023-08-06T02:25:58;2.42;;;2.22;;
28547;SDS011;68292;49.600;8.746;2023-08-06T02:28:28;2.42;;;2.05;;
28547;SDS011;68292;49.600;8.746;2023-08-06T02:30:56;2.40;;;2.20;;
28547;SDS011;68292;49.600;8.746;2023-08-06T02:33:24;2.50;;;2.30;;
28547;SDS011;68292;49.600;8.746;2023-08-06T02:36:00;2.40;;;2.20;;
28547;SDS011;68292;49.600;8.746;2023-08-06T02:38:30;3.00;;;2.03;;
28547;SDS011;68292;49.600;8.746;2023-08-06T02:41:03;2.10;;;2.00;;
28547;SDS011;68292;49.600;8.746;2023-08-06T02:43:31;2.28;;;2.05;;
28547;SDS011;68292;49.600;8.746;2023-08-06T02:46:00;3.05;;;2.40;;
28547;SDS011;68292;49.600;8.746;2023-08-06T02:48:29;2.20;;;2.10;;
28547;SDS011;68292;49.600;8.746;2023-08-06T02:50:57;2.20;;;2.10;;
28547;SDS011;68292;49.600;8.746;2023-08-06T02:53:28;2.60;;;2.25;;
28547;SDS011;68292;49.600;8.746;2023-08-06T02:55:58;2.10;;;1.90;;
28547;SDS011;68292;49.600;8.746;2023-08-06T02:58:37;2.30;;;2.10;;
28547;SDS011;68292;49.600;8.746;2023-08-06T03:01:19;4.63;;;2.08;;
28547;SDS011;68292;49.600;8.746;2023-08-06T03:03:55;2.10;;;1.90;;
28547;SDS011;68292;49.600;8.746;2023-08-06T03:06:29;2.20;;;2.00;;
28547;SDS011;68292;49.600;8.746;2023-08-06T03:08:59;2.25;;;2.00;;
28547;SDS011;68292;49.600;8.746;2023-08-06T03:11:29;2.80;;;2.53;;
28547;SDS011;68292;49.600;8.746;2023-08-06T03:14:04;4.53;;;2.25;;
28547;SDS011;68292;49.600;8.746;2023-08-06T03:16:32;2.47;;;2.03;;
28547;SDS011;68292;49.600;8.746;2023-08-06T03:19:00;2.35;;;2.15;;
28547;SDS011;68292;49.600;8.746;2023-08-06T03:21:29;1.95;;;1.80;;
28547;SDS011;68292;49.600;8.746;2023-08-06T03:23:57;3.78;;;1.98;;
28547;SDS011;68292;49.600;8.746;2023-08-06T03:26:29;2.50;;;2.30;;
28547;SDS011;68292;49.600;8.746;2023-08-06T03:28:57;4.32;;;2.35;;
28547;SDS011;68292;49.600;8.746;2023-08-06T03:31:29;2.88;;;2.22;;
28547;SDS011;68292;49.600;8.746;2023-08-06T03:33:58;2.40;;;2.20;;
28547;SDS011;68292;49.600;8.746;2023-08-06T03:36:28;2.55;;;2.25;;
28547;SDS011;68292;49.600;8.746;2023-08-06T03:38:57;2.80;;;2.00;;
28547;SDS011;68292;49.600;8.746;2023-08-06T03:41:26;3.35;;;2.35;;
28547;SDS011;68292;49.600;8.746;2023-08-06T03:43:54;3.15;;;2.20;;
28547;SDS011;68292;49.600;8.746;2023-08-06T03:46:25;4.18;;;1.92;;
28547;SDS011;68292;49.600;8.746;2023-08-06T03:48:55;3.65;;;2.03;;
28547;SDS011;68292;49.600;8.746;2023-08-06T03:51:24;3.40;;;1.95;;
28547;SDS011;68292;49.600;8.746;2023-08-06T03:53:53;2.50;;;2.00;;
28547;SDS011;68292;49.600;8.746;2023-08-06T03:56:21;2.30;;;2.10;;
28547;SDS011;68292;49.600;8.746;2023-08-06T03:58:49;3.22;;;1.83;;
28547;SDS011;68292;49.600;8.746;2023-08-06T04:01:17;5.53;;;2.08;;
28547;SDS011;68292;49.600;8.746;2023-08-06T04:03:47;3.42;;;1.85;;
28547;SDS011;68292;49.600;8.746;2023-08-06T04:06:16;2.22;;;1.52;;
28547;SDS011;68292;49.600;8.746;2023-08-06T04:08:45;2.70;;;1.55;;
28547;SDS011;68292;49.600;8.746;2023-08-06T04:11:13;1.90;;;1.80;;
28547;SDS011;68292;49.600;8.746;2023-08-06T04:13:42;1.88;;;1.60;;
28547;SDS011;68292;49.600;8.746;2023-08-06T04:16:11;2.47;;;1.75;;
28547;SDS011;68292;49.600;8.746;2023-08-06T04:18:41;1.95;;;1.75;;
28547;SDS011;68292;49.600;8.746;2023-08-06T04:21:09;1.90;;;1.63;;
28547;SDS011;68292;49.600;8.746;2023-08-06T04:23:38;1.70;;;1.60;;
28547;SDS011;68292;49.600;8.746;2023-08-06T04:26:07;1.85;;;1.45;;
28547;SDS011;68292;49.600;8.746;2023-08-06T04:28:37;3.95;;;1.60;;
28547;SDS011;68292;49.600;8.746;2023-08-06T04:31:05;1.75;;;1.55;;
28547;SDS011;68292;49.600;8.746;2023-08-06T04:33:34;2.03;;;1.80;;
28547;SDS011;68292;49.600;8.746;2023-08-06T04:36:06;2.25;;;1.58;;
28547;SDS011;68292;49.600;8.746;2023-08-06T04:38:35;1.83;;;1.70;;
28547;SDS011;68292;49.600;8.746;2023-08-06T04:41:04;3.13;;;2.00;;
28547;SDS011;68292;49.600;8.746;2023-08-06T04:43:34;2.67;;;2.00;;
28547;SDS011;68292;49.600;8.746;2023-08-06T04:46:02;2.65;;;2.33;;
28547;SDS011;68292;49.600;8.746;2023-08-06T04:48:30;2.78;;;2.58;;
28547;SDS011;68292;49.600;8.746;2023-08-06T04:50:58;2.17;;;1.98;;
28547;SDS011;68292;49.600;8.746;2023-08-06T04:53:26;1.75;;;1.60;;
28547;SDS011;68292;49.600;8.746;2023-08-06T04:55:54;3.22;;;1.98;;
28547;SDS011;68292;49.600;8.746;2023-08-06T04:58:24;2.17;;;1.70;;
28547;SDS011;68292;49.600;8.746;2023-08-06T05:00:52;4.18;;;1.90;;
28547;SDS011;68292;49.600;8.746;2023-08-06T05:03:21;4.10;;;1.80;;
28547;SDS011;68292;49.600;8.746;2023-08-06T05:05:49;2.47;;;1.52;;
28547;SDS011;68292;49.600;8.746;2023-08-06T05:08:17;3.55;;;2.10;;
28547;SDS011;68292;49.600;8.746;2023-08-06T05:10:46;1.65;;;1.50;;
28547;SDS011;68292;49.600;8.746;2023-08-06T05:13:14;2.70;;;1.65;;
28547;SDS011;68292;49.600;8.746;2023-08-06T05:15:43;2.25;;;1.80;;
28547;SDS011;68292;49.600;8.746;2023-08-06T05:18:12;1.40;;;1.30;;
28547;SDS011;68292;49.600;8.746;2023-08-06T05:20:41;2.05;;;1.50;;
28547;SDS011;68292;49.600;8.746;2023-08-06T05:23:10;2.33;;;1.58;;
28547;SDS011;68292;49.600;8.746;2023-08-06T05:25:38;1.92;;;1.60;;
28547;SDS011;68292;49.600;8.746;2023-08-06T05:28:06;1.70;;;1.42;;
28547;SDS011;68292;49.600;8.746;2023-08-06T05:30:38;1.20;;;1.20;;
28547;SDS011;68292;49.600;8.746;2023-08-06T05:33:08;3.20;;;1.60;;
28547;SDS011;68292;49.600;8.746;2023-08-06T05:35:36;5.40;;;1.77;;
28547;SDS011;68292;49.600;8.746;2023-08-06T05:38:04;1.88;;;1.27;;
28547;SDS011;68292;49.600;8.746;2023-08-06T05:40:33;1.60;;;1.50;;
28547;SDS011;68292;49.600;8.746;2023-08-06T05:43:01;1.70;;;1.20;;
28547;SDS011;68292;49.600;8.746;2023-08-06T05:45:29;2.38;;;1.10;;
28547;SDS011;68292;49.600;8.746;2023-08-06T05:47:57;1.25;;;1.02;;
28547;SDS011;68292;49.600;8.746;2023-08-06T05:50:27;1.00;;;0.90;;
28547;SDS011;68292;49.600;8.746;2023-08-06T05:52:55;2.90;;;1.30;;
28547;SDS011;68292;49.600;8.746;2023-08-06T05:55:27;1.65;;;1.05;;
28547;SDS011;68292;49.600;8.746;2023-08-06T05:57:55;1.98;;;1.13;;
28547;SDS011;68292;49.600;8.746;2023-08-06T06:00:23;1.48;;;1.10;;
28547;SDS011;68292;49.600;8.746;2023-08-06T06:02:51;1.10;;;1.00;;
28547;SDS011;68292;49.600;8.746;2023-08-06T06:05:19;2.15;;;1.30;;
28547;SDS011;68292;49.600;8.746;2023-08-06T06:07:49;1.95;;;1.10;;
28547;SDS011;68292;49.600;8.746;2023-08-06T06:10:17;1.90;;;1.17;;
28547;SDS011;68292;49.600;8.746;2023-08-06T06:12:45;1.73;;;1.10;;
28547;SDS011;68292;49.600;8.746;2023-08-06T06:15:13;1.10;;;1.10;;
28547;SDS011;68292;49.600;8.746;2023-08-06T06:17:41;3.03;;;1.30;;
28547;SDS011;68292;49.600;8.746;2023-08-06T06:20:09;2.10;;;0.98;;
28547;SDS011;68292;49.600;8.746;2023-08-06T06:22:37;1.10;;;1.00;;
28547;SDS011;68292;49.600;8.746;2023-08-06T06:25:07;2.75;;;2.00;;
28547;SDS011;68292;49.600;8.746;2023-08-06T06:27:36;2.75;;;1.85;;
28547;SDS011;68292;49.600;8.746;2023-08-06T06:30:05;1.40;;;1.25;;
28547;SDS011;68292;49.600;8.746;2023-08-06T06:32:34;1.33;;;1.05;;
28547;SDS011;68292;49.600;8.746;2023-08-06T06:35:03;2.00;;;1.17;;
28547;SDS011;68292;49.600;8.746;2023-08-06T06:37:33;0.93;;;0.85;;
28547;SDS011;68292;49.600;8.746;2023-08-06T06:40:01;2.28;;;1.05;;
28547;SDS011;68292;49.600;8.746;2023-08-06T06:42:31;1.10;;;1.00;;
28547;SDS011;68292;49.600;8.746;2023-08-06T06:45:01;1.30;;;1.02;;
28547;SDS011;68292;49.600;8.746;2023-08-06T06:47:29;0.73;;;0.73;;
28547;SDS011;68292;49.600;8.746;2023-08-06T06:49:57;1.10;;;1.00;;
28547;SDS011;68292;49.600;8.746;2023-08-06T06:52:25;1.80;;;0.98;;
28547;SDS011;68292;49.600;8.746;2023-08-06T06:54:53;3.22;;;1.50;;
28547;SDS011;68292;49.600;8.746;2023-08-06T06:57:21;3.10;;;1.00;;
28547;SDS011;68292;49.600;8.746;2023-08-06T06:59:50;3.70;;;1.02;;
28547;SDS011;68292;49.600;8.746;2023-08-06T07:02:18;1.30;;;1.20;;
28547;SDS011;68292;49.600;8.746;2023-08-06T07:04:46;3.00;;;1.20;;
28547;SDS011;68292;49.600;8.746;2023-08-06T07:07:15;1.58;;;1.20;;
28547;SDS011;68292;49.600;8.746;2023-08-06T07:09:43;1.58;;;1.02;;
28547;SDS011;68292;49.600;8.746;2023-08-06T07:12:12;2.70;;;1.08;;
28547;SDS011;68292;49.600;8.746;2023-08-06T07:14:40;1.08;;;0.95;;
28547;SDS011;68292;49.600;8.746;2023-08-06T07:17:09;1.25;;;1.02;;
28547;SDS011;68292;49.600;8.746;2023-08-06T07:19:37;0.75;;;0.68;;
28547;SDS011;68292;49.600;8.746;2023-08-06T07:22:05;1.10;;;1.00;;
28547;SDS011;68292;49.600;8.746;2023-08-06T07:24:33;1.38;;;1.00;;
28547;SDS011;68292;49.600;8.746;2023-08-06T07:27:01;1.50;;;1.00;;
28547;SDS011;68292;49.600;8.746;2023-08-06T07:29:30;2.25;;;1.00;;
28547;SDS011;68292;49.600;8.746;2023-08-06T07:31:58;1.08;;;0.90;;
28547;SDS011;68292;49.600;8.746;2023-08-06T07:34:27;0.90;;;0.90;;
28547;SDS011;68292;49.600;8.746;2023-08-06T07:36:55;1.58;;;1.20;;
28547;SDS011;68292;49.600;8.746;2023-08-06T07:39:23;1.65;;;1.20;;
28547;SDS011;68292;49.600;8.746;2023-08-06T07:41:52;2.88;;;1.10;;
28547;SDS011;68292;49.600;8.746;2023-08-06T07:44:20;1.48;;;1.00;;
28547;SDS011;68292;49.600;8.746;2023-08-06T07:46:48;1.33;;;1.02;;
28547;SDS011;68292;49.600;8.746;2023-08-06T07:49:16;0.95;;;0.85;;
28547;SDS011;68292;49.600;8.746;2023-08-06T07:51:46;0.98;;;0.88;;
28547;SDS011;68292;49.600;8.746;2023-08-06T07:54:14;1.38;;;1.15;;
28547;SDS011;68292;49.600;8.746;2023-08-06T07:56:42;0.80;;;0.80;;
28547;SDS011;68292;49.600;8.746;2023-08-06T07:59:10;0.63;;;0.63;;
28547;SDS011;68292;49.600;8.746;2023-08-06T08:01:38;0.77;;;0.77;;
28547;SDS011;68292;49.600;8.746;2023-08-06T08:04:06;0.80;;;0.80;;
28547;SDS011;68292;49.600;8.746;2023-08-06T08:06:34;1.17;;;0.68;;
28547;SDS011;68292;49.600;8.746;2023-08-06T08:09:03;0.50;;;0.50;;
28547;SDS011;68292;49.600;8.746;2023-08-06T08:11:31;1.40;;;0.90;;
28547;SDS011;68292;49.600;8.746;2023-08-06T08:14:00;0.85;;;0.80;;
28547;SDS011;68292;49.600;8.746;2023-08-06T08:16:29;0.77;;;0.77;;
28547;SDS011;68292;49.600;8.746;2023-08-06T08:18:57;1.42;;;0.80;;
28547;SDS011;68292;49.600;8.746;2023-08-06T08:21:25;1.35;;;0.80;;
28547;SDS011;68292;49.600;8.746;2023-08-06T08:23:53;0.90;;;0.90;;
28547;SDS011;68292;49.600;8.746;2023-08-06T08:26:23;0.63;;;0.63;;
28547;SDS011;68292;49.600;8.746;2023-08-06T08:28:53;1.30;;;0.90;;
28547;SDS011;68292;49.600;8.746;2023-08-06T08:31:22;1.13;;;0.85;;
28547;SDS011;68292;49.600;8.746;2023-08-06T08:33:52;2.08;;;1.38;;
28547;SDS011;68292;49.600;8.746;2023-08-06T08:36:22;1.65;;;1.00;;
28547;SDS011;68292;49.600;8.746;2023-08-06T08:38:50;1.10;;;1.00;;
28547;SDS011;68292;49.600;8.746;2023-08-06T08:41:20;1.27;;;0.88;;
28547;SDS011;68292;49.600;8.746;2023-08-06T08:43:49;1.10;;;1.00;;
28547;SDS011;68292;49.600;8.746;2023-08-06T08:46:18;1.25;;;0.88;;
28547;SDS011;68292;49.600;8.746;2023-08-06T08:48:47;1.77;;;1.27;;
28547;SDS011;68292;49.600;8.746;2023-08-06T08:51:15;0.80;;;0.80;;
28547;SDS011;68292;49.600;8.746;2023-08-06T08:53:45;0.80;;;0.80;;
28547;SDS011;68292;49.600;8.746;2023-08-06T08:56:14;0.82;;;0.82;;
28547;SDS011;68292;49.600;8.746;2023-08-06T08:58:44;2.50;;;1.00;;
28547;SDS011;68292;49.600;8.746;2023-08-06T09:01:13;0.80;;;0.80;;
28547;SDS011;68292;49.600;8.746;2023-08-06T09:03:42;0.73;;;0.73;;
28547;SDS011;68292;49.600;8.746;2023-08-06T09:06:11;2.08;;;0.88;;
28547;SDS011;68292;49.600;8.746;2023-08-06T09:08:41;1.45;;;1.00;;
28547;SDS011;68292;49.600;8.746;2023-08-06T09:11:14;0.90;;;0.90;;
28547;SDS011;68292;49.600;8.746;2023-08-06T09:13:43;0.70;;;0.70;;
28547;SDS011;68292;49.600;8.746;2023-08-06T09:16:13;0.73;;;0.73;;
28547;SDS011;68292;49.600;8.746;2023-08-06T09:18:42;0.65;;;0.65;;
28547;SDS011;68292;49.600;8.746;2023-08-06T09:21:13;0.65;;;0.65;;
28547;SDS011;68292;49.600;8.746;2023-08-06T09:23:42;0.63;;;0.60;;
28547;SDS011;68292;49.600;8.746;2023-08-06T09:26:13;0.63;;;0.63;;
28547;SDS011;68292;49.600;8.746;2023-08-06T09:28:42;0.80;;;0.80;;
28547;SDS011;68292;49.600;8.746;2023-08-06T09:31:11;2.40;;;0.80;;
28547;SDS011;68292;49.600;8.746;2023-08-06T09:33:40;0.60;;;0.60;;
28547;SDS011;68292;49.600;8.746;2023-08-06T09:36:11;0.77;;;0.77;;
28547;SDS011;68292;49.600;8.746;2023-08-06T09:38:39;0.80;;;0.80;;
28547;SDS011;68292;49.600;8.746;2023-08-06T09:41:08;0.77;;;0.75;;
28547;SDS011;68292;49.600;8.746;2023-08-06T09:43:39;0.60;;;0.60;;
28547;SDS011;68292;49.600;8.746;2023-08-06T09:46:12;1.17;;;0.80;;
28547;SDS011;68292;49.600;8.746;2023-08-06T09:48:46;0.70;;;0.70;;
28547;SDS011;68292;49.600;8.746;2023-08-06T09:51:14;1.58;;;0.90;;
28547;SDS011;68292;49.600;8.746;2023-08-06T09:53:42;0.80;;;0.80;;
28547;SDS011;68292;49.600;8.746;2023-08-06T09:56:13;1.77;;;1.00;;
28547;SDS011;68292;49.600;8.746;2023-08-06T09:58:42;1.02;;;0.73;;
28547;SDS011;68292;49.600;8.746;2023-08-06T10:01:13;1.10;;;1.10;;
28547;SDS011;68292;49.600;8.746;2023-08-06T10:03:43;1.70;;;0.70;;
28547;SDS011;68292;49.600;8.746;2023-08-06T10:06:13;0.98;;;0.80;;
28547;SDS011;68292;49.600;8.746;2023-08-06T10:08:41;0.70;;;0.70;;
28547;SDS011;68292;49.600;8.746;2023-08-06T10:11:09;0.73;;;0.73;;
28547;SDS011;68292;49.600;8.746;2023-08-06T10:13:38;0.70;;;0.70;;
28547;SDS011;68292;49.600;8.746;2023-08-06T10:16:07;0.70;;;0.70;;
28547;SDS011;68292;49.600;8.746;2023-08-06T10:18:35;0.80;;;0.80;;
28547;SDS011;68292;49.600;8.746;2023-08-06T10:21:08;0.88;;;0.88;;
28547;SDS011;68292;49.600;8.746;2023-08-06T10:23:37;0.98;;;0.90;;
28547;SDS011;68292;49.600;8.746;2023-08-06T10:26:08;4.03;;;1.08;;
28547;SDS011;68292;49.600;8.746;2023-08-06T10:28:37;1.98;;;1.05;;
28547;SDS011;68292;49.600;8.746;2023-08-06T10:31:07;1.20;;;0.90;;
28547;SDS011;68292;49.600;8.746;2023-08-06T10:33:42;0.98;;;0.88;;
28547;SDS011;68292;49.600;8.746;2023-08-06T10:36:13;0.47;;;0.47;;
28547;SDS011;68292;49.600;8.746;2023-08-06T10:38:46;1.95;;;0.80;;
28547;SDS011;68292;49.600;8.746;2023-08-06T10:41:15;0.77;;;0.73;;
28547;SDS011;68292;49.600;8.746;2023-08-06T10:43:50;0.70;;;0.70;;
28547;SDS011;68292;49.600;8.746;2023-08-06T10:46:22;0.85;;;0.85;;
28547;SDS011;68292;49.600;8.746;2023-08-06T10:48:54;0.80;;;0.80;;
28547;SDS011;68292;49.600;8.746;2023-08-06T10:51:23;0.80;;;0.77;;
28547;SDS011;68292;49.600;8.746;2023-08-06T10:53:52;1.35;;;0.88;;
28547;SDS011;68292;49.600;8.746;2023-08-06T10:56:24;1.33;;;0.85;;
28547;SDS011;68292;49.600;8.746;2023-08-06T10:58:54;2.25;;;1.13;;
28547;SDS011;68292;49.600;8.746;2023-08-06T11:01:23;4.47;;;1.08;;
28547;SDS011;68292;49.600;8.746;2023-08-06T11:04:00;1.05;;;0.98;;
28547;SDS011;68292;49.600;8.746;2023-08-06T11:06:32;0.75;;;0.75;;
28547;SDS011;68292;49.600;8.746;2023-08-06T11:09:01;0.60;;;0.60;;
28547;SDS011;68292;49.600;8.746;2023-08-06T11:11:29;1.90;;;0.90;;
28547;SDS011;68292;49.600;8.746;2023-08-06T11:13:57;0.98;;;0.80;;
28547;SDS011;68292;49.600;8.746;2023-08-06T11:16:25;0.63;;;0.63;;
28547;SDS011;68292;49.600;8.746;2023-08-06T11:18:54;1.05;;;0.77;;
28547;SDS011;68292;49.600;8.746;2023-08-06T11:21:23;0.70;;;0.70;;
28547;SDS011;68292;49.600;8.746;2023-08-06T11:23:53;0.65;;;0.65;;
28547;SDS011;68292;49.600;8.746;2023-08-06T11:26:22;1.00;;;1.00;;
28547;SDS011;68292;49.600;8.746;2023-08-06T11:28:50;1.10;;;1.00;;
28547;SDS011;68292;49.600;8.746;2023-08-06T11:31:19;1.02;;;0.98;;
28547;SDS011;68292;49.600;8.746;2023-08-06T11:33:48;1.00;;;1.00;;
28547;SDS011;68292;49.600;8.746;2023-08-06T11:36:17;0.80;;;0.80;;
28547;SDS011;68292;49.600;8.746;2023-08-06T11:38:58;1.00;;;1.00;;
28547;SDS011;68292;49.600;8.746;2023-08-06T11:41:27;0.88;;;0.88;;
28547;SDS011;68292;49.600;8.746;2023-08-06T11:43:55;6.22;;;0.85;;
28547;SDS011;68292;49.600;8.746;2023-08-06T11:46:23;0.95;;;0.85;;
28547;SDS011;68292;49.600;8.746;2023-08-06T11:48:52;1.20;;;1.00;;
28547;SDS011;68292;49.600;8.746;2023-08-06T11:51:22;2.30;;;1.20;;
28547;SDS011;68292;49.600;8.746;2023-08-06T11:53:55;1.10;;;1.02;;
28547;SDS011;68292;49.600;8.746;2023-08-06T11:56:26;0.90;;;0.90;;
28547;SDS011;68292;49.600;8.746;2023-08-06T11:58:55;5.60;;;1.27;;
28547;SDS011;68292;49.600;8.746;2023-08-06T12:01:23;0.80;;;0.80;;
28547;SDS011;68292;49.600;8.746;2023-08-06T12:03:57;2.05;;;0.68;;
28547;SDS011;68292;49.600;8.746;2023-08-06T12:06:27;0.82;;;0.82;;
28547;SDS011;68292;49.600;8.746;2023-08-06T12:08:55;1.10;;;0.90;;
28547;SDS011;68292;49.600;8.746;2023-08-06T12:11:23;0.60;;;0.60;;
28547;SDS011;68292;49.600;8.746;2023-08-06T12:13:54;0.70;;;0.70;;
28547;SDS011;68292;49.600;8.746;2023-08-06T12:16:23;0.88;;;0.80;;
28547;SDS011;68292;49.600;8.746;2023-08-06T12:18:51;1.48;;;0.93;;
28547;SDS011;68292;49.600;8.746;2023-08-06T12:21:19;0.80;;;0.80;;
28547;SDS011;68292;49.600;8.746;2023-08-06T12:23:47;0.80;;;0.80;;
28547;SDS011;68292;49.600;8.746;2023-08-06T12:26:15;5.65;;;1.00;;
28547;SDS011;68292;49.600;8.746;2023-08-06T12:28:43;0.90;;;0.90;;
28547;SDS011;68292;49.600;8.746;2023-08-06T12:31:12;1.10;;;1.00;;
28547;SDS011;68292;49.600;8.746;2023-08-06T12:33:40;0.80;;;0.80;;
28547;SDS011;68292;49.600;8.746;2023-08-06T12:36:08;1.30;;;0.80;;
28547;SDS011;68292;49.600;8.746;2023-08-06T12:38:37;2.15;;;0.93;;
28547;SDS011;68292;49.600;8.746;2023-08-06T12:41:05;4.25;;;1.00;;
28547;SDS011;68292;49.600;8.746;2023-08-06T12:43:33;0.85;;;0.85;;
28547;SDS011;68292;49.600;8.746;2023-08-06T12:46:01;0.85;;;0.85;;
28547;SDS011;68292;49.600;8.746;2023-08-06T12:48:31;1.15;;;1.05;;
28547;SDS011;68292;49.600;8.746;2023-08-06T12:50:59;0.88;;;0.88;;
28547;SDS011;68292;49.600;8.746;2023-08-06T12:53:27;1.83;;;1.10;;
28547;SDS011;68292;49.600;8.746;2023-08-06T12:55:55;0.90;;;0.90;;
28547;SDS011;68292;49.600;8.746;2023-08-06T12:58:23;2.28;;;0.90;;
28547;SDS011;68292;49.600;8.746;2023-08-06T13:00:51;6.15;;;1.10;;
28547;SDS011;68292;49.600;8.746;2023-08-06T13:03:20;1.80;;;1.23;;
28547;SDS011;68292;49.600;8.746;2023-08-06T13:05:50;2.63;;;1.00;;
28547;SDS011;68292;49.600;8.746;2023-08-06T13:08:18;1.15;;;1.15;;
28547;SDS011;68292;49.600;8.746;2023-08-06T13:10:46;1.02;;;1.00;;
28547;SDS011;68292;49.600;8.746;2023-08-06T13:13:14;1.20;;;1.10;;
28547;SDS011;68292;49.600;8.746;2023-08-06T13:15:42;1.55;;;1.15;;
28547;SDS011;68292;49.600;8.746;2023-08-06T13:18:10;1.10;;;1.05;;
28547;SDS011;68292;49.600;8.746;2023-08-06T13:20:38;1.33;;;1.23;;
28547;SDS011;68292;49.600;8.746;2023-08-06T13:23:08;1.00;;;1.00;;
28547;SDS011;68292;49.600;8.746;2023-08-06T13:25:36;1.40;;;1.30;;
28547;SDS011;68292;49.600;8.746;2023-08-06T13:28:05;2.67;;;1.40;;
28547;SDS011;68292;49.600;8.746;2023-08-06T13:30:33;1.10;;;1.00;;
28547;SDS011;68292;49.600;8.746;2023-08-06T13:33:07;1.25;;;1.17;;
28547;SDS011;68292;49.600;8.746;2023-08-06T13:35:36;1.20;;;1.10;;
28547;SDS011;68292;49.600;8.746;2023-08-06T13:38:04;1.08;;;1.02;;
28547;SDS011;68292;49.600;8.746;2023-08-06T13:40:34;1.10;;;1.10;;
28547;SDS011;68292;49.600;8.746;2023-08-06T13:43:03;1.13;;;1.02;;
28547;SDS011;68292;49.600;8.746;2023-08-06T13:45:31;3.33;;;0.98;;
28547;SDS011;68292;49.600;8.746;2023-08-06T13:48:01;1.08;;;1.00;;
28547;SDS011;68292;49.600;8.746;2023-08-06T13:50:30;0.80;;;0.80;;
28547;SDS011;68292;49.600;8.746;2023-08-06T13:52:58;1.48;;;1.10;;
28547;SDS011;68292;49.600;8.746;2023-08-06T13:55:27;2.17;;;1.00;;
28547;SDS011;68292;49.600;8.746;2023-08-06T13:57:56;1.88;;;1.70;;
28547;SDS011;68292;49.600;8.746;2023-08-06T14:00:24;1.63;;;1.30;;
28547;SDS011;68292;49.600;8.746;2023-08-06T14:02:52;2.33;;;1.15;;
28547;SDS011;68292;49.600;8.746;2023-08-06T14:05:20;2.05;;;1.23;;
28547;SDS011;68292;49.600;8.746;2023-08-06T14:07:48;1.20;;;1.10;;
28547;SDS011;68292;49.600;8.746;2023-08-06T14:10:17;3.22;;;1.20;;
28547;SDS011;68292;49.600;8.746;2023-08-06T14:12:45;1.20;;;1.10;;
28547;SDS011;68292;49.600;8.746;2023-08-06T14:15:32;3.90;;;1.75;;
28547;SDS011;68292;49.600;8.746;2023-08-06T14:18:00;2.47;;;0.80;;
28547;SDS011;68292;49.600;8.746;2023-08-06T14:20:28;1.48;;;0.90;;
28547;SDS011;68292;49.600;8.746;2023-08-06T14:22:57;1.75;;;1.00;;
28547;SDS011;68292;49.600;8.746;2023-08-06T14:25:25;1.15;;;1.05;;
28547;SDS011;68292;49.600;8.746;2023-08-06T14:27:53;1.80;;;1.17;;
28547;SDS011;68292;49.600;8.746;2023-08-06T14:30:21;1.85;;;1.02;;
28547;SDS011;68292;49.600;8.746;2023-08-06T14:32:50;0.90;;;0.90;;
28547;SDS011;68292;49.600;8.746;2023-08-06T14:35:18;1.85;;;0.68;;
28547;SDS011;68292;49.600;8.746;2023-08-06T14:37:47;1.00;;;0.98;;
28547;SDS011;68292;49.600;8.746;2023-08-06T14:40:15;2.63;;;1.08;;
28547;SDS011;68292;49.600;8.746;2023-08-06T14:42:43;1.20;;;1.10;;
28547;SDS011;68292;49.600;8.746;2023-08-06T14:45:11;1.60;;;0.93;;
28547;SDS011;68292;49.600;8.746;2023-08-06T14:47:39;0.88;;;0.88;;
28547;SDS011;68292;49.600;8.746;2023-08-06T14:50:09;1.40;;;1.30;;
28547;SDS011;68292;49.600;8.746;2023-08-06T14:52:37;1.42;;;1.33;;
28547;SDS011;68292;49.600;8.746;2023-08-06T14:55:05;2.22;;;1.10;;
28547;SDS011;68292;49.600;8.746;2023-08-06T14:57:34;2.65;;;0.90;;
28547;SDS011;68292;49.600;8.746;2023-08-06T15:00:02;1.38;;;1.10;;